createdAt,value
2022-08-04T00:02:53.224Z,2.63
2022-08-04T00:05:31.694Z,2.55
2022-08-04T00:08:08.209Z,2.50
2022-08-04T00:10:37.451Z,2.50
2022-08-04T00:13:06.598Z,2.60
2022-08-04T00:15:35.665Z,2.20
2022-08-04T00:18:07.054Z,2.25
2022-08-04T00:20:41.021Z,2.80
2022-08-04T00:23:10.047Z,2.30
2022-08-04T00:25:41.647Z,2.58
2022-08-04T00:28:10.251Z,2.50
2022-08-04T00:30:38.510Z,2.70
2022-08-04T00:33:06.519Z,2.40
2022-08-04T00:35:39.294Z,2.50
2022-08-04T00:38:07.766Z,2.92
2022-08-04T00:40:46.838Z,2.45
2022-08-04T00:43:22.610Z,2.30
2022-08-04T00:46:17.466Z,2.58
2022-08-04T00:49:03.529Z,2.67
2022-08-04T00:51:45.370Z,2.30
2022-08-04T00:54:19.142Z,2.20
2022-08-04T00:57:31.167Z,1.98
2022-08-04T01:00:08.926Z,2.42
2022-08-04T01:02:49.923Z,1.95
2022-08-04T01:05:23.747Z,2.10
2022-08-04T01:08:06.440Z,2.67
2022-08-04T01:10:48.110Z,2.42
2022-08-04T01:13:43.542Z,1.80
2022-08-04T01:16:12.159Z,2.53
2022-08-04T01:18:49.515Z,2.20
2022-08-04T01:21:39.826Z,3.08
2022-08-04T01:24:29.356Z,2.55
2022-08-04T01:27:03.835Z,2.53
2022-08-04T01:29:44.392Z,2.90
2022-08-04T01:32:25.549Z,2.30
2022-08-04T01:35:01.259Z,2.38
2022-08-04T01:37:46.514Z,2.80
2022-08-04T01:40:16.203Z,2.60
2022-08-04T01:42:46.610Z,2.63
2022-08-04T01:47:50.158Z,2.70
2022-08-04T01:50:18.560Z,2.78
2022-08-04T01:52:50.944Z,3.13
2022-08-04T01:55:19.579Z,2.92
2022-08-04T01:57:49.656Z,2.75
2022-08-04T02:00:21.390Z,3.08
2022-08-04T02:02:51.537Z,2.28
2022-08-04T02:05:21.507Z,3.03
2022-08-04T02:08:02.914Z,2.45
2022-08-04T02:10:36.905Z,2.75
2022-08-04T02:13:13.031Z,3.20
2022-08-04T02:15:54.584Z,2.78
2022-08-04T02:18:26.068Z,3.15
2022-08-04T02:20:59.356Z,3.10
2022-08-04T02:23:31.963Z,2.90
2022-08-04T02:26:03.059Z,2.60
2022-08-04T02:28:37.551Z,3.20
2022-08-04T02:31:19.223Z,3.30
2022-08-04T02:33:54.552Z,3.40
2022-08-04T02:36:25.108Z,2.90
2022-08-04T02:38:57.394Z,3.35
2022-08-04T02:41:27.310Z,2.72
2022-08-04T02:43:57.968Z,3.03
2022-08-04T02:46:28.276Z,2.72
2022-08-04T02:48:56.643Z,3.00
2022-08-04T02:51:29.114Z,2.70
2022-08-04T02:53:59.289Z,2.95
2022-08-04T02:56:30.166Z,2.47
2022-08-04T02:59:01.520Z,3.97
2022-08-04T03:01:31.258Z,2.53
2022-08-04T03:04:37.499Z,2.70
2022-08-04T03:07:44.092Z,2.55
2022-08-04T03:10:37.674Z,2.70
2022-08-04T03:13:57.406Z,3.28
2022-08-04T03:16:57.597Z,2.85
2022-08-04T03:20:07.452Z,2.67
2022-08-04T03:23:15.035Z,2.60
2022-08-04T03:26:09.204Z,2.70
2022-08-04T03:29:10.230Z,2.33
2022-08-04T03:32:08.181Z,2.60
2022-08-04T03:34:55.508Z,2.75
2022-08-04T03:38:10.016Z,2.60
2022-08-04T03:41:18.056Z,2.50
2022-08-04T03:44:32.868Z,3.10
2022-08-04T03:47:29.706Z,2.60
2022-08-04T03:50:41.453Z,2.90
2022-08-04T03:53:44.576Z,3.05
2022-08-04T03:56:37.510Z,2.40
2022-08-04T03:59:25.184Z,2.55
2022-08-04T04:02:38.483Z,3.25
2022-08-04T04:05:30.552Z,2.72
2022-08-04T04:08:19.592Z,2.85
2022-08-04T04:11:20.259Z,2.78
2022-08-04T04:16:50.897Z,2.10
2022-08-04T04:19:30.900Z,2.20
2022-08-04T04:22:15.623Z,2.75
2022-08-04T04:25:10.763Z,2.00
2022-08-04T04:27:52.413Z,2.30
2022-08-04T04:30:28.824Z,2.13
2022-08-04T04:33:07.871Z,2.03
2022-08-04T04:35:51.591Z,2.00
2022-08-04T04:38:37.466Z,2.08
2022-08-04T04:41:21.948Z,2.20
2022-08-04T04:44:07.648Z,1.92
2022-08-04T04:46:43.016Z,2.33
2022-08-04T04:49:21.792Z,2.00
2022-08-04T04:51:52.402Z,2.22
2022-08-04T04:54:29.776Z,2.40
2022-08-04T04:57:08.600Z,2.28
2022-08-04T04:59:39.274Z,2.08
2022-08-04T05:02:33.592Z,2.13
2022-08-04T05:05:43.620Z,2.40
2022-08-04T05:08:44.401Z,2.38
2022-08-04T05:11:39.036Z,2.75
2022-08-04T05:14:38.593Z,2.33
2022-08-04T05:17:07.206Z,2.50
2022-08-04T05:19:46.907Z,2.50
2022-08-04T05:22:23.535Z,2.20
2022-08-04T05:25:01.750Z,2.28
2022-08-04T05:27:39.818Z,2.45
2022-08-04T05:30:13.707Z,2.20
2022-08-04T05:32:49.501Z,2.30
2022-08-04T05:35:52.933Z,2.42
2022-08-04T05:38:15.606Z,2.72
2022-08-04T05:40:44.803Z,2.72
2022-08-04T05:43:13.902Z,2.20
2022-08-04T05:45:48.317Z,2.05
2022-08-04T05:48:16.659Z,2.30
2022-08-04T05:50:46.402Z,2.30
2022-08-04T05:53:16.884Z,2.20
2022-08-04T05:58:30.797Z,2.00
2022-08-04T06:01:01.062Z,1.85
2022-08-04T06:03:30.849Z,2.00
2022-08-04T06:05:59.769Z,2.08
2022-08-04T06:08:28.260Z,1.83
2022-08-04T06:11:00.108Z,1.75
2022-08-04T06:13:48.090Z,1.80
2022-08-04T06:16:28.935Z,1.95
2022-08-04T06:21:51.554Z,1.98
2022-08-04T06:24:21.631Z,2.10
2022-08-04T06:26:51.346Z,2.05
2022-08-04T06:29:24.948Z,2.05
2022-08-04T06:32:30.889Z,2.10
2022-08-04T06:34:48.742Z,1.98
2022-08-04T06:37:43.053Z,1.80
2022-08-04T06:40:29.874Z,2.58
2022-08-04T06:42:57.471Z,2.15
2022-08-04T06:45:25.979Z,2.33
2022-08-04T06:47:56.698Z,2.00
2022-08-04T06:51:27.183Z,1.90
2022-08-04T06:53:14.396Z,2.40
2022-08-04T06:55:44.613Z,1.75
2022-08-04T06:58:13.687Z,2.00
2022-08-04T07:00:44.679Z,1.80
2022-08-04T07:03:14.811Z,1.70
2022-08-04T07:05:43.358Z,1.65
2022-08-04T07:08:12.229Z,1.80
2022-08-04T07:10:41.721Z,2.00
2022-08-04T07:13:11.629Z,2.28
2022-08-04T07:15:42.516Z,2.13
2022-08-04T07:18:10.637Z,1.77
2022-08-04T07:20:42.360Z,2.03
2022-08-04T07:23:12.082Z,2.10
2022-08-04T07:25:58.859Z,2.15
2022-08-04T07:28:29.725Z,1.60
2022-08-04T07:30:59.409Z,1.95
2022-08-04T07:33:27.437Z,1.85
2022-08-04T07:36:05.124Z,1.67
2022-08-04T07:38:48.709Z,1.77
2022-08-04T07:41:39.350Z,1.70
2022-08-04T07:44:08.687Z,1.63
2022-08-04T07:46:37.509Z,1.50
2022-08-04T07:49:06.236Z,1.23
2022-08-04T07:51:38.563Z,1.20
2022-08-04T07:54:09.223Z,1.30
2022-08-04T07:56:38.820Z,1.05
2022-08-04T07:59:07.372Z,1.30
2022-08-04T08:01:37.112Z,0.90
2022-08-04T08:04:08.203Z,0.85
2022-08-04T08:06:43.146Z,0.77
2022-08-04T08:09:14.540Z,0.68
2022-08-04T08:12:37.424Z,0.90
2022-08-04T08:14:33.469Z,0.70
2022-08-04T08:17:02.682Z,0.65
2022-08-04T08:19:31.033Z,0.70
2022-08-04T08:22:01.842Z,0.70
2022-08-04T08:24:31.424Z,0.73
2022-08-04T08:27:00.502Z,0.80
2022-08-04T08:29:30.033Z,0.80
2022-08-04T08:32:01.649Z,0.80
2022-08-04T08:34:37.749Z,1.02
2022-08-04T08:37:13.897Z,0.90
2022-08-04T08:39:47.210Z,0.80
2022-08-04T08:43:59.962Z,0.95
2022-08-04T08:46:00.320Z,0.82
2022-08-04T08:48:50.640Z,1.23
2022-08-04T08:51:28.719Z,1.20
2022-08-04T08:54:20.250Z,1.00
2022-08-04T08:57:01.131Z,1.17
2022-08-04T08:59:49.070Z,1.08
2022-08-04T09:02:46.173Z,1.10
2022-08-04T09:05:38.793Z,1.33
2022-08-04T09:08:24.247Z,0.95
2022-08-04T09:11:00.007Z,1.00
2022-08-04T09:13:34.345Z,1.08
2022-08-04T09:16:22.248Z,0.90
2022-08-04T09:18:57.681Z,0.95
2022-08-04T09:21:30.971Z,0.98
2022-08-04T09:24:36.257Z,1.08
2022-08-04T09:27:01.339Z,1.23
2022-08-04T09:29:37.859Z,0.90
2022-08-04T09:32:13.087Z,1.02
2022-08-04T09:35:03.290Z,1.00
2022-08-04T09:37:45.639Z,1.02
2022-08-04T09:40:31.793Z,1.13
2022-08-04T09:43:21.185Z,1.10
2022-08-04T09:46:00.137Z,1.55
2022-08-04T09:48:38.248Z,1.20
2022-08-04T09:51:15.412Z,1.40
2022-08-04T09:53:54.864Z,1.17
2022-08-04T09:56:29.411Z,1.20
2022-08-04T09:59:09.643Z,1.33
2022-08-04T10:01:39.126Z,1.42
2022-08-04T10:04:12.444Z,1.20
2022-08-04T10:07:13.580Z,1.70
2022-08-04T10:09:51.514Z,1.40
2022-08-04T10:12:31.366Z,1.30
2022-08-04T10:15:11.068Z,1.02
2022-08-04T10:18:18.508Z,1.20
2022-08-04T10:21:08.049Z,1.50
2022-08-04T10:24:00.144Z,1.48
2022-08-04T10:26:48.347Z,1.50
2022-08-04T10:29:20.814Z,1.00
2022-08-04T10:31:58.479Z,1.17
2022-08-04T10:34:30.484Z,1.55
2022-08-04T10:37:05.603Z,1.63
2022-08-04T10:39:44.251Z,1.65
2022-08-04T10:42:21.902Z,1.20
2022-08-04T10:45:02.651Z,1.58
2022-08-04T10:47:36.665Z,1.27
2022-08-04T10:50:06.521Z,1.30
2022-08-04T10:52:39.601Z,1.73
2022-08-04T10:55:13.315Z,1.10
2022-08-04T10:57:46.059Z,1.17
2022-08-04T11:00:19.830Z,1.23
2022-08-04T11:02:54.751Z,1.00
2022-08-04T11:05:30.309Z,1.20
2022-08-04T11:08:06.614Z,1.45
2022-08-04T11:10:42.163Z,1.55
2022-08-04T11:13:22.042Z,1.10
2022-08-04T11:16:04.181Z,1.23
2022-08-04T11:18:41.385Z,1.38
2022-08-04T11:21:17.086Z,1.10
2022-08-04T11:23:53.199Z,0.90
2022-08-04T11:26:25.874Z,1.40
2022-08-04T11:29:03.626Z,0.88
2022-08-04T11:31:34.578Z,1.05
2022-08-04T11:34:07.931Z,1.13
2022-08-04T11:36:43.290Z,1.02
2022-08-04T11:39:19.536Z,0.98
2022-08-04T11:41:53.488Z,1.15
2022-08-04T11:44:28.127Z,1.02
2022-08-04T11:47:00.559Z,1.05
2022-08-04T11:49:57.324Z,1.30
2022-08-04T11:52:25.331Z,1.20
2022-08-04T11:54:54.562Z,1.40
2022-08-04T11:57:25.798Z,1.30
2022-08-04T12:00:09.867Z,1.13
2022-08-04T12:03:03.092Z,1.13
2022-08-04T12:05:38.096Z,1.23
2022-08-04T12:08:23.433Z,1.02
2022-08-04T12:11:03.180Z,1.00
2022-08-04T12:13:38.349Z,0.80
2022-08-04T12:16:16.152Z,1.30
2022-08-04T12:18:52.543Z,1.38
2022-08-04T12:21:30.517Z,1.30
2022-08-04T12:24:02.813Z,1.20
2022-08-04T12:26:38.437Z,1.20
2022-08-04T12:29:10.916Z,1.02
2022-08-04T12:31:46.477Z,1.17
2022-08-04T12:34:18.656Z,1.52
2022-08-04T12:36:57.006Z,1.20
2022-08-04T12:39:28.119Z,1.65
2022-08-04T12:42:04.790Z,1.30
2022-08-04T12:44:37.387Z,1.20
2022-08-04T12:47:36.198Z,1.10
2022-08-04T12:50:01.687Z,1.20
2022-08-04T12:53:01.438Z,1.42
2022-08-04T12:55:27.075Z,0.90
2022-08-04T12:57:56.498Z,0.80
2022-08-04T13:00:30.130Z,1.30
2022-08-04T13:03:09.579Z,1.00
2022-08-04T13:05:41.097Z,1.00
2022-08-04T13:08:12.378Z,1.30
2022-08-04T13:10:42.525Z,1.00
2022-08-04T13:13:21.300Z,1.10
2022-08-04T13:16:00.445Z,0.85
2022-08-04T13:18:32.081Z,1.00
2022-08-04T13:21:20.163Z,1.13
2022-08-04T13:24:10.976Z,1.25
2022-08-04T13:30:00.153Z,1.20
2022-08-04T13:30:25.010Z,1.20
2022-08-04T13:32:31.846Z,1.20
2022-08-04T13:35:03.921Z,1.30
2022-08-04T13:37:35.385Z,0.98
2022-08-04T13:40:07.641Z,1.25
2022-08-04T13:42:36.410Z,1.30
2022-08-04T13:45:07.476Z,1.40
2022-08-04T13:47:38.711Z,1.10
2022-08-04T13:50:14.978Z,1.00
2022-08-04T13:52:44.134Z,1.08
2022-08-04T13:55:21.999Z,1.15
2022-08-04T13:57:54.256Z,1.10
2022-08-04T14:00:29.807Z,1.10
2022-08-04T14:03:23.228Z,1.13
2022-08-04T14:06:24.637Z,1.50
2022-08-04T14:08:55.609Z,1.27
2022-08-04T14:12:06.595Z,1.25
2022-08-04T14:14:25.775Z,1.30
2022-08-04T14:17:05.447Z,1.20
2022-08-04T14:19:52.823Z,1.42
2022-08-04T14:22:35.620Z,1.30
2022-08-04T14:25:09.067Z,1.00
2022-08-04T14:27:48.162Z,1.45
2022-08-04T14:30:24.080Z,1.60
2022-08-04T14:33:59.519Z,1.65
2022-08-04T14:35:58.497Z,1.75
2022-08-04T14:38:43.243Z,1.70
2022-08-04T14:41:11.354Z,1.30
2022-08-04T14:43:51.596Z,1.30
2022-08-04T14:46:19.983Z,1.67
2022-08-04T14:49:10.706Z,1.17
2022-08-04T14:51:41.975Z,1.35
2022-08-04T14:54:15.658Z,1.00
2022-08-04T14:56:54.158Z,1.27
2022-08-04T14:59:24.713Z,1.20
2022-08-04T15:02:00.993Z,1.30
2022-08-04T15:04:31.489Z,1.20
2022-08-04T15:07:00.613Z,1.35
2022-08-04T15:09:32.745Z,1.45
2022-08-04T15:12:01.092Z,1.23
2022-08-04T15:14:36.871Z,1.10
2022-08-04T15:17:11.884Z,1.00
2022-08-04T15:19:41.080Z,1.20
2022-08-04T15:22:23.619Z,1.30
2022-08-04T15:24:54.917Z,1.40
2022-08-04T15:27:26.668Z,1.23
2022-08-04T15:30:02.008Z,1.20
2022-08-04T15:32:32.810Z,1.10
2022-08-04T15:37:40.295Z,1.20
2022-08-04T15:40:13.379Z,1.20
2022-08-04T15:42:48.313Z,1.20
2022-08-04T15:46:37.225Z,1.25
2022-08-04T15:48:33.083Z,1.20
2022-08-04T15:51:07.036Z,1.52
2022-08-04T15:54:27.474Z,1.27
2022-08-04T15:57:02.485Z,1.30
2022-08-04T16:00:00.517Z,1.35
2022-08-04T16:02:39.980Z,1.35
2022-08-04T16:05:39.239Z,1.40
2022-08-04T16:08:15.243Z,1.70
2022-08-04T16:10:46.374Z,1.73
2022-08-04T16:13:15.646Z,1.50
2022-08-04T16:15:46.902Z,1.20
2022-08-04T16:18:26.682Z,1.48
2022-08-04T16:20:57.840Z,1.13
2022-08-04T16:24:03.689Z,1.42
2022-08-04T16:26:53.560Z,2.42
2022-08-04T16:29:35.248Z,2.00
2022-08-04T16:32:23.464Z,1.58
2022-08-04T16:34:59.813Z,1.92
2022-08-04T16:37:33.971Z,1.85
2022-08-04T16:40:35.862Z,1.98
2022-08-04T16:43:10.401Z,1.40
2022-08-04T16:45:47.067Z,1.83
2022-08-04T16:48:16.697Z,2.05
2022-08-04T16:50:57.531Z,3.92
2022-08-04T16:54:04.348Z,5.18
2022-08-04T16:56:33.614Z,3.08
2022-08-04T16:59:08.279Z,2.03
2022-08-04T17:01:37.021Z,1.65
2022-08-04T17:04:06.449Z,1.70
2022-08-04T17:06:37.886Z,1.67
2022-08-04T17:09:07.784Z,1.67
2022-08-04T17:11:35.774Z,2.05
2022-08-04T17:14:05.889Z,1.70
2022-08-04T17:16:35.548Z,1.50
2022-08-04T17:19:03.755Z,2.00
2022-08-04T17:21:35.539Z,1.92
2022-08-04T17:24:14.806Z,1.52
2022-08-04T17:26:54.635Z,1.40
2022-08-04T17:29:43.015Z,1.77
2022-08-04T17:32:15.930Z,1.30
2022-08-04T17:34:48.579Z,1.48
2022-08-04T17:37:39.169Z,1.40
2022-08-04T17:44:04.634Z,1.50
2022-08-04T17:46:15.966Z,1.40
2022-08-04T17:48:58.926Z,1.70
2022-08-04T17:51:53.416Z,1.50
2022-08-04T17:54:37.343Z,1.42
2022-08-04T17:57:19.662Z,1.65
2022-08-04T17:59:56.278Z,1.38
2022-08-04T18:02:32.346Z,1.67
2022-08-04T18:05:06.800Z,1.80
2022-08-04T18:08:39.100Z,1.25
2022-08-04T18:10:56.188Z,1.73
2022-08-04T18:13:29.533Z,1.80
2022-08-04T18:16:03.153Z,1.88
2022-08-04T18:18:31.272Z,1.52
2022-08-04T18:21:02.954Z,1.60
2022-08-04T18:26:23.601Z,1.58
2022-08-04T18:28:53.472Z,1.40
2022-08-04T18:31:21.499Z,1.40
2022-08-04T18:33:57.131Z,1.50
2022-08-04T18:39:18.335Z,1.38
2022-08-04T18:42:06.513Z,1.52
2022-08-04T18:44:52.113Z,1.42
2022-08-04T18:47:23.059Z,1.85
2022-08-04T18:50:59.784Z,1.20
2022-08-04T18:52:45.122Z,1.30
2022-08-04T18:55:55.270Z,1.70
2022-08-04T18:58:06.291Z,1.60
2022-08-04T19:00:37.846Z,1.40
2022-08-04T19:03:13.303Z,1.45
2022-08-04T19:05:44.907Z,1.33
2022-08-04T19:08:34.438Z,1.60
2022-08-04T19:11:38.725Z,1.50
2022-08-04T19:16:45.699Z,1.65
2022-08-04T19:19:14.140Z,1.73
2022-08-04T19:22:01.424Z,1.80
2022-08-04T19:24:34.418Z,1.20
2022-08-04T19:27:06.900Z,1.35
2022-08-04T19:29:40.556Z,1.45
2022-08-04T19:32:14.114Z,1.70
2022-08-04T19:34:46.091Z,1.58
2022-08-04T19:37:56.191Z,1.85
2022-08-04T19:40:04.588Z,2.00
2022-08-04T19:42:33.015Z,2.00
2022-08-04T19:45:00.905Z,1.70
2022-08-04T19:48:15.933Z,1.38
2022-08-04T19:50:19.731Z,1.65
2022-08-04T19:52:51.926Z,1.48
2022-08-04T19:55:22.437Z,1.52
2022-08-04T19:57:52.479Z,2.15
2022-08-04T20:03:13.242Z,1.88
2022-08-04T20:05:55.397Z,1.92
2022-08-04T20:08:27.938Z,1.98
2022-08-04T20:10:56.040Z,1.60
2022-08-04T20:13:37.025Z,2.42
2022-08-04T20:16:28.553Z,2.33
2022-08-04T20:19:02.755Z,2.45
2022-08-04T20:21:36.503Z,1.83
2022-08-04T20:24:39.461Z,2.10
2022-08-04T20:27:14.903Z,2.05
2022-08-04T20:29:48.293Z,1.90
2022-08-04T20:32:19.246Z,2.47
2022-08-04T20:37:17.194Z,2.30
2022-08-04T20:39:45.472Z,2.40
2022-08-04T20:42:27.019Z,2.10
2022-08-04T20:44:55.848Z,1.92
2022-08-04T20:47:26.743Z,2.15
2022-08-04T20:50:00.669Z,2.28
2022-08-04T20:52:30.288Z,2.13
2022-08-04T20:54:58.768Z,2.03
2022-08-04T20:57:47.643Z,2.10
2022-08-04T21:00:15.590Z,2.45
2022-08-04T21:02:44.478Z,2.50
2022-08-04T21:05:13.863Z,1.90
2022-08-04T21:07:48.738Z,2.05
2022-08-04T21:10:17.188Z,2.45
2022-08-04T21:12:50.032Z,2.13
2022-08-04T21:15:25.048Z,2.35
2022-08-04T21:17:59.136Z,2.40
2022-08-04T21:20:34.532Z,2.45
2022-08-04T21:23:03.630Z,2.65
2022-08-04T21:25:42.479Z,2.70
2022-08-04T21:28:11.035Z,2.40
2022-08-04T21:30:54.750Z,2.80
2022-08-04T21:33:49.002Z,3.05
2022-08-04T21:36:19.473Z,3.50
2022-08-04T21:38:51.081Z,3.95
2022-08-04T21:41:27.004Z,3.83
2022-08-04T21:43:56.406Z,3.42
2022-08-04T21:46:27.473Z,3.70
2022-08-04T21:48:58.750Z,3.95
2022-08-04T21:51:59.350Z,3.38
2022-08-04T21:54:20.047Z,4.32
2022-08-04T21:56:52.247Z,3.25
2022-08-04T21:59:23.630Z,2.95
2022-08-04T22:02:00.370Z,3.15
2022-08-04T22:04:28.885Z,3.80
2022-08-04T22:06:58.191Z,3.60
2022-08-04T22:09:31.599Z,3.40
2022-08-04T22:12:07.191Z,2.90
2022-08-04T22:14:39.426Z,3.20
2022-08-04T22:17:07.532Z,3.22
2022-08-04T22:19:55.991Z,3.80
2022-08-04T22:22:29.584Z,3.85
2022-08-04T22:25:12.429Z,3.00
2022-08-04T22:28:00.883Z,3.35
2022-08-04T22:30:33.319Z,3.20
2022-08-04T22:33:07.366Z,3.10
2022-08-04T22:35:48.870Z,3.13
2022-08-04T22:38:24.307Z,3.97
2022-08-04T22:40:58.474Z,3.00
2022-08-04T22:43:32.576Z,3.22
2022-08-04T22:46:03.924Z,2.85
2022-08-04T22:48:33.419Z,2.63
2022-08-04T22:51:01.422Z,2.50
2022-08-04T22:53:32.204Z,2.53
2022-08-04T22:56:09.461Z,2.92
2022-08-04T22:58:40.184Z,2.63
2022-08-04T23:01:09.190Z,2.67
2022-08-04T23:03:38.592Z,3.40
2022-08-04T23:06:11.766Z,3.17
2022-08-04T23:08:43.019Z,2.53
2022-08-04T23:11:14.953Z,2.20
2022-08-04T23:13:42.966Z,2.67
2022-08-04T23:16:11.208Z,2.17
2022-08-04T23:18:42.341Z,2.08
2022-08-04T23:21:13.964Z,2.30
2022-08-04T23:23:55.502Z,2.03
2022-08-04T23:26:31.700Z,2.28
2022-08-04T23:29:03.714Z,2.33
2022-08-04T23:31:41.276Z,1.85
2022-08-04T23:34:20.034Z,1.40
2022-08-04T23:36:49.295Z,1.60
2022-08-04T23:39:19.340Z,1.30
2022-08-04T23:41:53.952Z,1.92
2022-08-04T23:44:26.891Z,1.98
2022-08-04T23:47:02.010Z,1.70
2022-08-04T23:49:44.067Z,1.52
2022-08-04T23:52:23.216Z,1.50
2022-08-04T23:54:59.954Z,1.50
2022-08-04T23:57:31.390Z,1.52
